Time;durP1;ratioP1;P1;durP2;ratioP2;P2;SDS_P1;SDS_P2;PMS_P1;PMS_P2;Temp;Humidity;BMP_temperature;BMP_pressure;BME280_temperature;BME280_humidity;BME280_pressure;Samples;Min_cycle;Max_cycle;Signal;HPM_P1;HPM_P2
2022/05/20 00:00:52;;;;;;;8.75;5.72;;;13.40;99.90;;;;;;5042163;28;20033;-65
2022/05/20 00:03:18;;;;;;;8.27;6.25;;;13.30;99.90;;;;;;5058367;28;20495;-66
2022/05/20 00:05:44;;;;;;;6.50;5.32;;;13.20;99.90;;;;;;5057390;28;20044;-66
2022/05/20 00:08:10;;;;;;;7.80;5.97;;;13.10;99.90;;;;;;5040832;28;20045;-65
2022/05/20 00:10:35;;;;;;;9.65;6.65;;;13.00;99.90;;;;;;5042056;28;20124;-66
2022/05/20 00:13:01;;;;;;;9.27;7.35;;;13.00;99.90;;;;;;5024351;28;20045;-65
2022/05/20 00:15:29;;;;;;;10.23;6.93;;;12.90;99.90;;;;;;5057226;28;20036;-65
2022/05/20 00:17:55;;;;;;;9.20;6.95;;;12.90;99.90;;;;;;5058230;28;20247;-66
2022/05/20 00:20:24;;;;;;;8.77;6.63;;;12.80;99.90;;;;;;5040257;28;20120;-65
2022/05/20 00:22:50;;;;;;;8.07;6.63;;;12.70;99.90;;;;;;5058250;28;20037;-65
2022/05/20 00:28:02;;;;;;;8.18;6.38;;;12.70;99.90;;;;;;5040286;28;20488;-65
2022/05/20 00:30:29;;;;;;;10.18;7.00;;;12.80;99.90;;;;;;5057937;28;20487;-65
2022/05/20 00:32:55;;;;;;;10.55;7.28;;;;;;;;;;5058711;28;20037;-66
2022/05/20 00:35:23;;;;;;;11.23;8.23;;;13.00;99.90;;;;;;5024505;28;20045;-66
2022/05/20 00:37:49;;;;;;;7.55;6.60;;;12.70;99.90;;;;;;5058804;28;20082;-66
2022/05/20 00:40:17;;;;;;;5.97;4.65;;;12.50;99.90;;;;;;5040324;28;20383;-66
2022/05/20 00:42:44;;;;;;;4.07;3.67;;;;;;;;;;5057463;28;20128;-65
2022/05/20 00:45:11;;;;;;;7.13;5.28;;;12.50;99.90;;;;;;5057987;28;20632;-66
2022/05/20 00:47:37;;;;;;;6.25;5.65;;;;;;;;;;5058567;28;20043;-66
2022/05/20 00:50:09;;;;;;;7.13;6.05;;;12.60;99.90;;;;;;5040858;28;20116;-65
2022/05/20 00:52:38;;;;;;;6.22;5.38;;;12.50;99.90;;;;;;5058456;28;20076;-65
2022/05/20 00:55:13;;;;;;;7.22;6.45;;;12.60;99.90;;;;;;5039889;28;20036;-65
2022/05/20 00:57:43;;;;;;;8.70;6.65;;;12.50;99.90;;;;;;5024005;28;20048;-66
2022/05/20 01:00:17;;;;;;;7.18;5.97;;;12.60;99.90;;;;;;5057661;28;20044;-66
2022/05/20 01:02:43;;;;;;;8.60;7.70;;;12.50;99.90;;;;;;5058765;28;20048;-65
2022/05/20 01:05:25;;;;;;;10.82;7.72;;;12.60;99.90;;;;;;5040632;28;20047;-66
2022/05/20 01:07:52;;;;;;;13.15;8.82;;;12.60;99.90;;;;;;5039965;28;20041;-66
2022/05/20 01:10:17;;;;;;;12.05;9.30;;;12.80;99.90;;;;;;5039442;28;20049;-66
2022/05/20 01:12:43;;;;;;;12.98;9.95;;;12.70;99.90;;;;;;5057033;28;20055;-65
2022/05/20 01:15:09;;;;;;;13.18;10.10;;;12.60;99.90;;;;;;5040240;28;20043;-66
2022/05/20 01:17:36;;;;;;;13.40;10.00;;;12.80;99.90;;;;;;5057808;28;20037;-65
2022/05/20 01:20:10;;;;;;;14.48;9.95;;;12.70;99.90;;;;;;5057859;28;20051;-65
2022/05/20 01:22:54;;;;;;;11.93;9.88;;;12.90;99.90;;;;;;5055266;28;20098;-66
2022/05/20 01:25:21;;;;;;;15.63;10.88;;;13.00;99.90;;;;;;5055748;28;20045;-66
2022/05/20 01:27:48;;;;;;;15.00;11.25;;;12.80;99.90;;;;;;5056336;28;20045;-65
2022/05/20 01:30:17;;;;;;;19.67;10.90;;;12.90;99.90;;;;;;5056996;28;20439;-65
2022/05/20 01:32:42;;;;;;;12.27;10.98;;;13.00;99.90;;;;;;5056597;28;20498;-65
2022/05/20 01:35:23;;;;;;;11.38;10.10;;;12.80;99.90;;;;;;5056410;28;20104;-65
2022/05/20 01:37:49;;;;;;;14.70;10.75;;;12.90;99.90;;;;;;5057578;28;20087;-66
2022/05/20 01:40:14;;;;;;;11.93;10.73;;;13.00;99.90;;;;;;5057144;28;20445;-66
2022/05/20 01:42:53;;;;;;;14.52;12.02;;;13.00;99.90;;;;;;5049133;28;20075;-64
2022/05/20 01:45:32;;;;;;;18.83;14.40;;;13.10;99.90;;;;;;5041320;28;20089;-65
2022/05/20 01:48:26;;;;;;;15.80;11.65;;;13.00;99.90;;;;;;5024001;28;20111;-66
2022/05/20 01:50:55;;;;;;;14.20;12.13;;;13.10;99.90;;;;;;5039372;28;20109;-65
2022/05/20 01:53:33;;;;;;;14.00;11.77;;;13.10;99.90;;;;;;5039739;28;20048;-65
2022/05/20 01:56:09;;;;;;;15.38;13.65;;;13.30;99.90;;;;;;5057629;28;20044;-65
2022/05/20 01:58:41;;;;;;;20.30;14.57;;;13.10;99.90;;;;;;5023405;28;20063;-66
2022/05/20 02:01:14;;;;;;;14.05;12.60;;;12.90;99.90;;;;;;5057382;28;20037;-65
2022/05/20 02:03:55;;;;;;;23.13;14.27;;;13.30;99.90;;;;;;5056967;28;20041;-65
2022/05/20 02:06:29;;;;;;;17.60;12.52;;;13.30;99.90;;;;;;5058157;28;20095;-66
2022/05/20 02:09:01;;;;;;;17.50;13.43;;;13.20;99.90;;;;;;5039694;28;20033;-65
2022/05/20 02:11:46;;;;;;;18.15;13.70;;;13.10;99.90;;;;;;5038562;28;20044;-65
2022/05/20 02:14:36;;;;;;;18.33;13.52;;;13.00;99.90;;;;;;5038341;28;20055;-65
2022/05/20 02:17:12;;;;;;;18.58;15.38;;;13.10;99.90;;;;;;5039276;28;20041;-66
2022/05/20 02:19:48;;;;;;;17.73;13.95;;;13.10;99.90;;;;;;5040700;28;20047;-66
2022/05/20 02:22:21;;;;;;;19.05;13.85;;;13.10;99.90;;;;;;5040045;28;20045;-65
2022/05/20 02:24:47;;;;;;;18.95;14.13;;;13.10;99.90;;;;;;5022379;28;20107;-65
2022/05/20 02:27:22;;;;;;;17.98;14.73;;;12.80;99.90;;;;;;5023004;28;20048;-65
2022/05/20 02:29:50;;;;;;;;;;;13.10;99.90;;;;;;5040277;28;20044;-66
2022/05/20 02:32:28;;;;;;;16.20;14.23;;;13.10;99.90;;;;;;5056437;28;19981;-66
2022/05/20 02:34:54;;;;;;;17.88;12.48;;;12.90;99.90;;;;;;5039791;28;20120;-66
2022/05/20 02:37:23;;;;;;;19.60;14.35;;;12.90;99.90;;;;;;5038180;28;20451;-65
2022/05/20 02:39:49;;;;;;;15.85;12.90;;;13.30;99.90;;;;;;5057486;28;20044;-65
2022/05/20 02:42:15;;;;;;;19.00;14.30;;;13.10;99.90;;;;;;5023595;28;20041;-66
2022/05/20 02:44:41;;;;;;;20.77;16.58;;;12.90;99.90;;;;;;5057420;28;20036;-65
2022/05/20 02:47:07;;;;;;;16.92;13.88;;;13.00;99.90;;;;;;5056708;28;20040;-65
2022/05/20 02:49:32;;;;;;;17.63;14.25;;;13.00;99.90;;;;;;5022691;28;20083;-65
2022/05/20 02:51:58;;;;;;;19.50;13.85;;;12.80;99.90;;;;;;5037760;28;20045;-65
2022/05/20 02:54:24;;;;;;;18.85;13.93;;;12.80;99.90;;;;;;5057039;28;20087;-65
2022/05/20 02:56:50;;;;;;;17.33;13.85;;;12.70;99.90;;;;;;5039094;28;20041;-66
2022/05/20 03:04:45;;;;;;;;;;;12.80;99.90;;;;;;5038916;28;20040;-66
2022/05/20 03:07:10;;;;;;;12.98;11.60;;;12.90;99.90;;;;;;5057507;28;19939;-66
2022/05/20 03:09:36;;;;;;;16.08;14.02;;;11.40;99.90;;;;;;5055429;28;20048;-66
2022/05/20 03:12:02;;;;;;;18.35;14.77;;;12.70;99.90;;;;;;5036949;28;20047;-65
2022/05/20 03:14:28;;;;;;;18.30;14.48;;;12.70;99.90;;;;;;5055964;28;20051;-66
2022/05/20 03:16:58;;;;;;;20.70;16.30;;;12.70;99.90;;;;;;5054959;28;20099;-65
2022/05/20 03:19:23;;;;;;;18.25;15.13;;;12.70;99.90;;;;;;5038723;28;20079;-65
2022/05/20 03:21:50;;;;;;;23.35;15.70;;;12.60;99.90;;;;;;5057356;28;20503;-66
2022/05/20 03:24:16;;;;;;;14.32;12.77;;;12.70;99.90;;;;;;5055340;28;20048;-67
2022/05/20 03:26:41;;;;;;;15.50;13.90;;;12.50;99.90;;;;;;5038419;28;20487;-65
2022/05/20 03:29:07;;;;;;;17.98;14.63;;;12.50;99.90;;;;;;5056466;28;20594;-65
2022/05/20 03:31:35;;;;;;;16.55;14.82;;;12.50;99.90;;;;;;5056645;28;20056;-65
2022/05/20 03:34:05;;;;;;;17.25;14.65;;;12.40;99.90;;;;;;5055558;28;20045;-65
2022/05/20 03:36:32;;;;;;;15.90;14.23;;;12.30;99.90;;;;;;5037198;28;20491;-66
2022/05/20 03:38:57;;;;;;;14.52;13.02;;;12.50;99.90;;;;;;5055191;28;20037;-65
2022/05/20 03:41:23;;;;;;;16.13;14.27;;;12.40;99.90;;;;;;5056161;28;20092;-65
2022/05/20 03:43:49;;;;;;;18.42;13.48;;;12.20;99.90;;;;;;5055927;28;20048;-65
2022/05/20 03:46:15;;;;;;;43.30;15.95;;;12.30;99.90;;;;;;5029550;28;20042;-65
2022/05/20 03:48:41;;;;;;;289.45;23.85;;;;;;;;;;5015484;28;20045;-65
2022/05/20 03:51:12;;;;;;;59.70;11.45;;;12.30;99.90;;;;;;5023848;28;20044;-64
2022/05/20 03:53:38;;;;;;;14.82;11.25;;;;;;;;;;5032506;28;20052;-65
2022/05/20 03:56:04;;;;;;;171.30;20.50;;;;;;;;;;5050370;28;20040;-65
2022/05/20 03:58:30;;;;;;;12.95;11.60;;;;;;;;;;5048968;28;20506;-65
2022/05/20 04:03:45;;;;;;;12.20;9.93;;;12.10;99.90;;;;;;5048800;28;20069;-65
2022/05/20 04:06:11;;;;;;;11.75;10.43;;;12.00;99.90;;;;;;5024803;28;20044;-65
2022/05/20 04:08:38;;;;;;;13.60;12.20;;;12.20;99.90;;;;;;5016756;28;20049;-64
2022/05/20 04:11:11;;;;;;;13.18;11.68;;;12.00;99.90;;;;;;5030451;28;20056;-64
2022/05/20 04:13:39;;;;;;;14.88;13.38;;;12.10;99.90;;;;;;5030232;28;20046;-65
2022/05/20 04:16:05;;;;;;;14.40;11.73;;;;;;;;;;5019957;28;20044;-64
2022/05/20 04:18:31;;;;;;;12.30;11.02;;;;;;;;;;5047925;28;20487;-64
2022/05/20 04:20:56;;;;;;;11.80;10.52;;;12.20;99.90;;;;;;5047232;28;20044;-64
2022/05/20 04:23:22;;;;;;;13.75;11.60;;;12.10;99.90;;;;;;5048382;28;20514;-64
2022/05/20 04:25:48;;;;;;;14.50;13.00;;;;;;;;;;5030613;28;20045;-64
2022/05/20 04:28:14;;;;;;;31.75;13.98;;;12.00;99.90;;;;;;5048767;28;20049;-65
2022/05/20 04:30:40;;;;;;;68.57;13.00;;;11.60;99.90;;;;;;5049020;28;20041;-65
2022/05/20 04:33:06;;;;;;;20.30;12.10;;;;;;;;;;5048902;28;20056;-63
2022/05/20 04:35:32;;;;;;;228.38;20.02;;;11.60;99.90;;;;;;5049699;28;20048;-65
2022/05/20 04:37:59;;;;;;;49.92;13.20;;;;;;;;;;5031216;28;20098;-64
2022/05/20 04:40:25;;;;;;;234.07;21.92;;;11.60;99.90;;;;;;5031398;28;20470;-64
2022/05/20 04:48:23;;;;;;;33.70;13.93;;;;;;;;;;5027915;28;20049;-65
2022/05/20 04:50:49;;;;;;;14.00;12.57;;;;;;;;;;5029351;28;20046;-64
2022/05/20 04:54:49;;;;;;;17.88;13.63;;;11.70;99.90;;;;;;5029196;28;20137;-64
2022/05/20 04:56:01;;;;;;;16.95;15.15;;;;;;;;;;5011164;28;20057;-65
2022/05/20 04:58:27;;;;;;;18.90;16.88;;;;;;;;;;5026707;28;20049;-64
2022/05/20 05:00:55;;;;;;;15.00;13.48;;;12.00;99.90;;;;;;5030483;28;20055;-65
2022/05/20 05:03:21;;;;;;;16.63;14.93;;;12.30;99.90;;;;;;5030787;28;20131;-65
2022/05/20 05:05:47;;;;;;;15.68;13.25;;;;;;;;;;5049030;28;20695;-64
2022/05/20 05:08:16;;;;;;;11.80;10.70;;;13.40;99.90;;;;;;5045036;28;20123;-64
2022/05/20 05:10:42;;;;;;;11.10;10.00;;;14.00;99.90;;;;;;5044995;28;20147;-64
2022/05/20 05:13:09;;;;;;;8.88;7.95;;;;;;;;;;5045295;28;20382;-65
2022/05/20 05:15:35;;;;;;;7.93;7.22;;;14.70;99.90;;;;;;5044805;28;20045;-64
2022/05/20 05:18:11;;;;;;;8.98;8.18;;;14.90;99.90;;;;;;5028062;28;20049;-64
2022/05/20 05:20:48;;;;;;;13.88;7.22;;;15.20;99.90;;;;;;5028096;28;20107;-64
2022/05/20 05:23:15;;;;;;;7.13;6.43;;;15.40;99.90;;;;;;5028148;28;20052;-64
2022/05/20 05:25:40;;;;;;;7.07;6.47;;;15.20;99.90;;;;;;5046673;28;20049;-64
2022/05/20 05:28:07;;;;;;;7.40;6.80;;;15.50;99.90;;;;;;5046683;28;20052;-64
2022/05/20 05:30:33;;;;;;;7.15;6.45;;;15.20;99.90;;;;;;5031793;28;20725;-64
2022/05/20 05:32:59;;;;;;;5.78;5.28;;;14.90;99.90;;;;;;5027451;28;20030;-64
2022/05/20 05:35:29;;;;;;;6.93;5.65;;;15.00;99.90;;;;;;5027398;28;20037;-64
2022/05/20 05:37:55;;;;;;;6.78;6.18;;;14.90;99.90;;;;;;5044363;28;20098;-65
2022/05/20 05:40:23;;;;;;;7.78;7.07;;;14.90;99.90;;;;;;5027991;28;20084;-65
2022/05/20 05:42:50;;;;;;;9.88;7.35;;;15.30;99.90;;;;;;5043716;28;20048;-65
2022/05/20 05:45:19;;;;;;;7.90;7.05;;;15.10;99.90;;;;;;5042770;28;20068;-64
2022/05/20 05:47:54;;;;;;;9.60;8.20;;;15.40;99.90;;;;;;5029980;28;20404;-64
2022/05/20 05:50:20;;;;;;;;;;;15.60;99.90;;;;;;5014684;28;20110;-64
2022/05/20 05:52:46;;;;;;;9.52;8.18;;;15.90;99.90;;;;;;5047356;28;20368;-63
2022/05/20 05:55:12;;;;;;;11.68;9.10;;;15.80;99.90;;;;;;5047557;28;20455;-63
2022/05/20 05:57:38;;;;;;;13.23;9.63;;;15.70;99.90;;;;;;5049468;28;20045;-63
2022/05/20 06:00:05;;;;;;;15.35;10.43;;;15.80;99.90;;;;;;5047421;28;20041;-64
2022/05/20 06:02:30;;;;;;;13.73;10.52;;;15.90;99.90;;;;;;5035371;28;20045;-64
2022/05/20 06:04:56;;;;;;;14.05;10.88;;;15.60;99.90;;;;;;5033035;28;20040;-64
2022/05/20 06:07:22;;;;;;;15.52;11.05;;;15.50;99.90;;;;;;5014820;28;20130;-63
2022/05/20 06:09:47;;;;;;;15.07;10.23;;;15.10;99.90;;;;;;5031923;28;20390;-64
2022/05/20 06:12:14;;;;;;;16.13;11.68;;;15.20;99.90;;;;;;5032573;28;20557;-64
2022/05/20 06:14:40;;;;;;;18.15;12.10;;;15.00;99.90;;;;;;5023850;28;20045;-64
2022/05/20 06:17:08;;;;;;;16.52;11.63;;;15.60;99.90;;;;;;5031282;28;20433;-64
2022/05/20 06:19:34;;;;;;;17.75;12.13;;;15.40;99.90;;;;;;5047866;28;20044;-64
2022/05/20 06:21:59;;;;;;;15.95;11.90;;;15.50;99.90;;;;;;5045933;28;20055;-64
2022/05/20 06:24:25;;;;;;;19.92;13.93;;;15.30;99.90;;;;;;5048770;28;20120;-64
2022/05/20 06:26:51;;;;;;;20.30;15.10;;;15.10;99.90;;;;;;5013571;28;20563;-64
2022/05/20 06:29:16;;;;;;;16.75;12.95;;;15.20;99.90;;;;;;5034107;28;20095;-64
2022/05/20 06:31:43;;;;;;;16.33;12.35;;;15.50;99.90;;;;;;5035159;28;20787;-64
2022/05/20 06:34:09;;;;;;;16.88;12.45;;;15.60;99.90;;;;;;5018768;28;20044;-63
2022/05/20 06:42:03;;;;;;;14.88;9.65;;;15.70;99.90;;;;;;5033288;28;20450;-64
2022/05/20 06:44:28;;;;;;;15.40;8.05;;;15.80;99.90;;;;;;5034277;28;20034;-64
2022/05/20 06:46:54;;;;;;;16.73;9.20;;;15.90;99.90;;;;;;5034727;28;20088;-64
2022/05/20 06:49:19;;;;;;;14.40;7.20;;;15.80;99.90;;;;;;5040076;28;20091;-64
2022/05/20 06:51:46;;;;;;;9.35;4.75;;;16.00;99.90;;;;;;5032312;28;20037;-64
2022/05/20 06:54:12;;;;;;;14.77;9.13;;;16.00;99.90;;;;;;5032463;28;20038;-63
2022/05/20 06:56:38;;;;;;;10.98;5.72;;;15.80;99.90;;;;;;5014528;28;20033;-63
2022/05/20 06:59:06;;;;;;;14.88;6.18;;;15.70;99.90;;;;;;5033956;28;20041;-63
2022/05/20 07:01:32;;;;;;;10.63;6.13;;;15.60;99.90;;;;;;5030181;28;20038;-64
2022/05/20 07:03:58;;;;;;;13.50;6.72;;;;;;;;;;5031506;28;20060;-63
2022/05/20 07:06:25;;;;;;;13.82;5.90;;;15.30;99.90;;;;;;5031636;28;20045;-63
2022/05/20 07:08:51;;;;;;;15.10;6.80;;;15.30;99.90;;;;;;5015746;28;20046;-63
2022/05/20 07:11:23;;;;;;;11.48;7.90;;;15.60;99.90;;;;;;5033277;28;20041;-64
2022/05/20 07:13:50;;;;;;;13.98;7.95;;;15.20;99.90;;;;;;5014380;28;20048;-64
2022/05/20 07:16:16;;;;;;;10.93;6.82;;;15.10;99.90;;;;;;5030267;28;20041;-64
2022/05/20 07:18:41;;;;;;;11.45;7.43;;;15.20;99.90;;;;;;5041746;28;20045;-65
2022/05/20 07:21:07;;;;;;;13.05;9.40;;;15.20;99.90;;;;;;5033170;28;20069;-63
2022/05/20 07:23:34;;;;;;;17.45;9.70;;;15.40;99.90;;;;;;5034750;28;20045;-64
2022/05/20 07:26:01;;;;;;;17.02;10.77;;;15.40;99.90;;;;;;5032977;28;20092;-64
2022/05/20 07:28:28;;;;;;;15.02;8.57;;;15.50;99.90;;;;;;5040853;28;20041;-64
2022/05/20 07:30:53;;;;;;;12.20;7.60;;;15.70;99.90;;;;;;5035495;28;20044;-64
2022/05/20 07:33:19;;;;;;;11.95;7.35;;;15.60;99.90;;;;;;5016684;28;20041;-64
2022/05/20 07:35:45;;;;;;;10.73;7.13;;;15.50;99.90;;;;;;5033714;28;20033;-65
2022/05/20 07:38:11;;;;;;;11.50;6.35;;;15.60;99.90;;;;;;5035656;28;20087;-64
2022/05/20 07:40:37;;;;;;;14.75;7.97;;;15.90;99.90;;;;;;5035107;28;20045;-65
2022/05/20 07:43:03;;;;;;;16.70;7.47;;;15.90;99.90;;;;;;5017669;28;20048;-64
2022/05/20 07:45:29;;;;;;;10.07;7.45;;;15.80;99.90;;;;;;5014616;28;20097;-64
2022/05/20 07:47:54;;;;;;;11.95;6.80;;;15.80;99.90;;;;;;5024897;28;20407;-62
2022/05/20 07:50:20;;;;;;;9.15;6.05;;;15.90;99.90;;;;;;5025670;28;20045;-63
2022/05/20 07:55:37;;;;;;;10.77;6.10;;;15.80;99.90;;;;;;5026504;28;20091;-62
2022/05/20 07:58:06;;;;;;;10.88;5.55;;;15.80;99.90;;;;;;5028350;28;20475;-64
2022/05/20 08:00:33;;;;;;;11.55;5.35;;;15.60;99.90;;;;;;5016473;28;20099;-65
2022/05/20 08:03:01;;;;;;;11.40;5.35;;;16.00;99.90;;;;;;5035140;28;20026;-64
2022/05/20 08:05:29;;;;;;;9.68;4.60;;;15.90;99.90;;;;;;5034025;28;20041;-64
2022/05/20 08:08:00;;;;;;;10.75;5.53;;;15.90;99.90;;;;;;5019292;28;20141;-64
2022/05/20 08:10:27;;;;;;;9.02;5.60;;;15.80;99.90;;;;;;5032833;28;20034;-65
2022/05/20 08:12:53;;;;;;;8.30;5.80;;;15.80;99.90;;;;;;5035085;28;20084;-65
2022/05/20 08:15:19;;;;;;;9.63;6.18;;;15.80;99.90;;;;;;5033621;28;20096;-65
2022/05/20 08:17:45;;;;;;;8.73;5.80;;;;;;;;;;5033417;28;20033;-64
2022/05/20 08:20:16;;;;;;;10.77;6.15;;;15.80;99.90;;;;;;5033047;28;20517;-65
2022/05/20 08:22:43;;;;;;;10.10;5.93;;;15.90;99.90;;;;;;5035072;28;20034;-65
2022/05/20 08:25:08;;;;;;;10.02;5.97;;;15.80;99.90;;;;;;5036675;28;20053;-65
2022/05/20 08:27:34;;;;;;;15.80;6.65;;;15.80;99.90;;;;;;5039379;28;20088;-65
2022/05/20 08:30:10;;;;;;;9.98;6.40;;;15.90;99.90;;;;;;5036787;28;20037;-64
2022/05/20 08:32:36;;;;;;;12.05;5.75;;;;;;;;;;5016121;28;20423;-64
2022/05/20 08:35:03;;;;;;;7.82;5.57;;;16.00;99.90;;;;;;5040272;28;20041;-64
2022/05/20 08:37:30;;;;;;;10.23;5.57;;;16.00;99.90;;;;;;5023733;28;20044;-64
2022/05/20 08:39:56;;;;;;;12.45;6.40;;;16.40;99.90;;;;;;5039325;28;20081;-63
2022/05/20 08:42:24;;;;;;;10.95;6.10;;;16.30;99.90;;;;;;5028182;28;20072;-63
2022/05/20 08:44:49;;;;;;;9.40;5.70;;;16.30;99.90;;;;;;5028357;28;20087;-63
2022/05/20 08:47:22;;;;;;;12.23;5.90;;;16.40;99.90;;;;;;5041607;28;20555;-64
2022/05/20 08:49:51;;;;;;;13.15;5.30;;;16.40;99.90;;;;;;5038705;28;20079;-63
2022/05/20 08:52:18;;;;;;;10.27;5.28;;;16.50;99.90;;;;;;5025271;28;20406;-64
2022/05/20 08:54:43;;;;;;;12.40;6.53;;;16.40;99.90;;;;;;5030602;28;20394;-65
2022/05/20 08:57:25;;;;;;;11.25;4.45;;;16.50;99.90;;;;;;5039288;28;20033;-64
2022/05/20 08:59:51;;;;;;;8.45;4.57;;;16.60;99.90;;;;;;5053083;28;20045;-64
2022/05/20 09:02:17;;;;;;;10.82;5.20;;;16.40;99.90;;;;;;5047285;28;20460;-65
2022/05/20 09:04:43;;;;;;;8.38;5.35;;;16.70;99.90;;;;;;5023550;28;20040;-64
2022/05/20 09:07:11;;;;;;;13.18;6.28;;;16.90;99.90;;;;;;5047507;28;20034;-64
2022/05/20 09:09:53;;;;;;;6.97;4.43;;;16.80;99.90;;;;;;5032417;28;20044;-65
2022/05/20 09:12:35;;;;;;;8.32;4.53;;;16.90;99.90;;;;;;4999351;28;20041;-65
2022/05/20 09:18:05;;;;;;;11.60;6.38;;;17.10;99.90;;;;;;5046900;28;20491;-65
2022/05/20 09:20:31;;;;;;;7.90;6.28;;;17.20;99.90;;;;;;5047621;28;20126;-64
2022/05/20 09:23:06;;;;;;;11.40;6.25;;;16.90;99.90;;;;;;5033483;28;20045;-65
2022/05/20 09:25:34;;;;;;;13.65;7.35;;;17.30;99.90;;;;;;5033457;28;20064;-66
2022/05/20 09:28:22;;;;;;;11.52;6.97;;;17.00;99.90;;;;;;5016117;28;20037;-65
2022/05/20 09:30:51;;;;;;;9.23;5.78;;;17.30;99.90;;;;;;5033931;28;20045;-66
2022/05/20 09:33:23;;;;;;;11.95;6.97;;;17.10;99.90;;;;;;5033601;28;20047;-66
2022/05/20 09:36:00;;;;;;;10.95;6.30;;;17.10;99.90;;;;;;5033636;28;20123;-65
2022/05/20 09:38:34;;;;;;;8.20;5.78;;;17.20;99.90;;;;;;5015967;28;20073;-66
2022/05/20 09:41:09;;;;;;;8.45;5.45;;;17.20;99.90;;;;;;5033538;28;20121;-65
2022/05/20 09:43:42;;;;;;;9.27;5.55;;;17.40;99.90;;;;;;5015339;28;20042;-65
2022/05/20 09:46:34;;;;;;;6.43;4.53;;;17.40;99.90;;;;;;5025316;28;20416;-65
2022/05/20 09:49:11;;;;;;;8.13;5.20;;;17.30;99.90;;;;;;5045203;28;20042;-64
2022/05/20 09:51:41;;;;;;;7.47;4.32;;;17.30;99.90;;;;;;5015984;28;20041;-64
2022/05/20 09:54:13;;;;;;;8.75;4.97;;;17.20;99.90;;;;;;5015853;28;20069;-65
2022/05/20 09:56:43;;;;;;;7.93;4.13;;;17.10;99.90;;;;;;5015129;28;20045;-66
2022/05/20 09:59:31;;;;;;;8.90;4.35;;;17.40;99.90;;;;;;5032032;28;20037;-65
2022/05/20 10:02:00;;;;;;;6.45;3.65;;;17.10;99.90;;;;;;5036695;28;20514;-64
2022/05/20 10:04:41;;;;;;;7.28;4.13;;;17.10;99.90;;;;;;5011993;28;20498;-65
2022/05/20 10:07:13;;;;;;;11.20;4.20;;;17.30;99.90;;;;;;5033632;28;20037;-64
2022/05/20 10:09:51;;;;;;;6.88;3.95;;;17.30;99.90;;;;;;5036856;28;20133;-64
2022/05/20 10:12:32;;;;;;;5.60;3.50;;;17.40;99.90;;;;;;5032955;28;20037;-65
2022/05/20 10:15:22;;;;;;;8.15;4.28;;;18.10;99.90;;;;;;5030568;28;20037;-64
2022/05/20 10:18:03;;;;;;;9.10;3.88;;;17.50;99.90;;;;;;5028660;28;20085;-64
2022/05/20 10:20:57;;;;;;;8.68;4.68;;;17.50;99.90;;;;;;5048485;28;20479;-64
2022/05/20 10:23:34;;;;;;;7.50;4.90;;;17.50;99.90;;;;;;5015552;28;20317;-64
2022/05/20 10:26:20;;;;;;;6.70;3.97;;;17.60;99.90;;;;;;5034351;28;20416;-64
2022/05/20 10:34:50;;;;;;;7.70;3.80;;;17.90;99.90;;;;;;5041281;28;20049;-64
2022/05/20 10:37:47;;;;;;;5.75;4.13;;;17.90;99.90;;;;;;5016538;28;20049;-64
2022/05/20 10:40:33;;;;;;;5.57;3.40;;;16.00;99.90;;;;;;5037847;28;20077;-64
2022/05/20 10:43:14;;;;;;;5.63;4.28;;;18.00;99.90;;;;;;5048098;28;20056;-65
2022/05/20 10:49:03;;;;;;;7.95;4.07;;;17.90;99.90;;;;;;5031564;28;20045;-64
2022/05/20 10:51:46;;;;;;;8.07;4.30;;;18.10;99.90;;;;;;5047151;28;20048;-65
2022/05/20 10:54:52;;;;;;;9.98;3.67;;;17.90;99.90;;;;;;5035778;28;20091;-66
2022/05/20 10:57:44;;;;;;;7.07;3.40;;;18.00;99.90;;;;;;5036517;28;20109;-64
2022/05/20 11:00:17;;;;;;;9.27;3.25;;;18.10;99.90;;;;;;5040420;28;20422;-65
2022/05/20 11:03:01;;;;;;;6.60;2.70;;;18.20;99.90;;;;;;5038931;28;20033;-64
2022/05/20 11:06:04;;;;;;;5.72;3.40;;;18.10;99.90;;;;;;5046825;28;20037;-64
2022/05/20 11:09:06;;;;;;;6.15;2.63;;;18.20;99.90;;;;;;5039262;28;20052;-65
2022/05/20 11:12:01;;;;;;;3.97;2.30;;;18.50;99.90;;;;;;5045888;28;20033;-64
2022/05/20 11:15:04;;;;;;;5.32;1.55;;;18.30;99.90;;;;;;5053274;28;20037;-64
2022/05/20 11:17:56;;;;;;;4.80;2.55;;;18.70;99.90;;;;;;5045973;28;20041;-65
2022/05/20 11:20:41;;;;;;;5.43;2.53;;;18.50;99.90;;;;;;5039147;28;20041;-63
2022/05/20 11:23:25;;;;;;;5.35;2.90;;;18.60;99.90;;;;;;5043863;28;20191;-64
2022/05/20 11:26:03;;;;;;;5.30;3.63;;;18.60;99.90;;;;;;5031522;28;20049;-64
2022/05/20 11:28:50;;;;;;;5.93;2.70;;;18.80;99.90;;;;;;5025863;28;20116;-64
2022/05/20 11:31:41;;;;;;;4.05;2.90;;;18.60;99.90;;;;;;5034230;28;20053;-64
2022/05/20 11:34:18;;;;;;;5.05;2.95;;;18.90;99.90;;;;;;5050346;28;20103;-65
2022/05/20 11:37:05;;;;;;;4.20;2.85;;;18.80;99.90;;;;;;5053389;28;20433;-65
2022/05/20 11:39:48;;;;;;;8.48;3.53;;;18.90;99.90;;;;;;5054390;28;20110;-64
2022/05/20 11:42:25;;;;;;;5.43;3.40;;;18.80;99.90;;;;;;5054585;28;20090;-64
2022/05/20 11:45:15;;;;;;;6.10;4.10;;;18.90;99.90;;;;;;5036379;28;20778;-64
2022/05/20 11:48:04;;;;;;;6.57;3.90;;;19.00;99.90;;;;;;5034228;28;20562;-64
2022/05/20 11:50:39;;;;;;;4.40;3.22;;;19.00;99.90;;;;;;5031461;28;20459;-63
2022/05/20 11:53:12;;;;;;;;;;;18.80;99.90;;;;;;5049546;28;20041;-66
2022/05/20 11:55:37;;;;;;;6.57;2.80;;;19.00;99.90;;;;;;5016497;28;19979;-64
2022/05/20 11:58:07;;;;;;;7.93;2.35;;;19.10;99.90;;;;;;5019072;28;20418;-65
2022/05/20 12:00:37;;;;;;;3.67;1.88;;;18.90;99.90;;;;;;5054326;28;20033;-65
2022/05/20 12:03:26;;;;;;;5.95;3.33;;;19.10;99.90;;;;;;5054073;28;20048;-65
2022/05/20 12:05:53;;;;;;;3.78;2.47;;;18.90;99.90;;;;;;5053372;28;20072;-65
2022/05/20 12:08:37;;;;;;;4.90;3.38;;;19.10;99.90;;;;;;5054003;28;20075;-65
2022/05/20 12:11:24;;;;;;;8.27;4.20;;;18.80;99.90;;;;;;5052582;28;20097;-65
2022/05/20 12:14:08;;;;;;;5.38;4.30;;;19.00;99.90;;;;;;5033227;28;20115;-64
2022/05/20 12:16:59;;;;;;;7.75;5.47;;;19.10;99.90;;;;;;5053965;28;20037;-65
2022/05/20 12:25:32;;;;;;;9.60;6.10;;;19.10;99.90;;;;;;5053548;28;20539;-64
2022/05/20 12:28:09;;;;;;;6.90;5.97;;;19.20;99.90;;;;;;5030739;28;20384;-65
2022/05/20 12:30:35;;;;;;;8.63;5.30;;;19.00;99.90;;;;;;5030648;28;20403;-65
2022/05/20 12:33:00;;;;;;;8.20;5.28;;;19.20;99.90;;;;;;5045963;28;20053;-64
2022/05/20 12:35:30;;;;;;;6.95;4.78;;;19.50;99.90;;;;;;5029432;28;20083;-65
2022/05/20 12:38:18;;;;;;;10.20;5.40;;;19.40;99.90;;;;;;5029989;28;20052;-65
2022/05/20 12:40:44;;;;;;;8.73;6.32;;;19.40;99.90;;;;;;5045731;28;20143;-65
2022/05/20 12:43:11;;;;;;;6.15;5.47;;;19.60;99.90;;;;;;5051671;28;20045;-65
2022/05/20 12:45:53;;;;;;;6.95;5.90;;;19.40;99.90;;;;;;5053069;28;20037;-64
2022/05/20 12:48:23;;;;;;;12.82;6.50;;;19.40;99.90;;;;;;5053172;28;20460;-65
2022/05/20 12:51:00;;;;;;;7.10;5.05;;;19.70;99.90;;;;;;5053046;28;20048;-65
2022/05/20 12:53:29;;;;;;;7.28;5.15;;;19.40;99.90;;;;;;5053173;28;20048;-64
2022/05/20 12:55:56;;;;;;;5.82;4.63;;;19.10;99.90;;;;;;5049149;28;20037;-64
2022/05/20 12:58:25;;;;;;;9.75;5.10;;;19.20;99.90;;;;;;5040597;28;20052;-64
2022/05/20 13:00:53;;;;;;;7.60;4.80;;;19.20;99.90;;;;;;5043389;28;20056;-64
2022/05/20 13:03:35;;;;;;;6.45;4.43;;;19.10;99.90;;;;;;5047916;28;20041;-64
2022/05/20 13:06:02;;;;;;;8.00;4.68;;;19.00;99.90;;;;;;5050168;28;20037;-64
2022/05/20 13:08:49;;;;;;;9.23;5.43;;;18.90;99.90;;;;;;5052030;28;20095;-64
2022/05/20 13:11:18;;;;;;;6.90;4.15;;;18.60;99.90;;;;;;5046213;28;20498;-64
2022/05/20 13:13:45;;;;;;;6.72;4.55;;;18.60;99.90;;;;;;5042898;28;20041;-64
2022/05/20 13:16:13;;;;;;;8.00;4.78;;;18.90;99.90;;;;;;5038535;28;20048;-64
2022/05/20 13:18:42;;;;;;;4.35;3.33;;;18.60;99.90;;;;;;5032517;28;20514;-64
2022/05/20 13:21:19;;;;;;;6.72;3.35;;;18.70;99.90;;;;;;5024564;28;20523;-64
2022/05/20 13:23:50;;;;;;;6.05;3.10;;;18.50;99.90;;;;;;5047577;28;20549;-64
2022/05/20 13:26:24;;;;;;;5.15;3.20;;;18.40;99.90;;;;;;5039300;28;20543;-65
2022/05/20 13:28:51;;;;;;;;;;;18.50;99.90;;;;;;5026281;28;20045;-65
2022/05/20 13:31:22;;;;;;;5.95;2.70;;;18.40;99.90;;;;;;5043630;28;19936;-65
2022/05/20 13:33:49;;;;;;;5.82;3.60;;;18.50;99.90;;;;;;5034071;28;20092;-64
2022/05/20 13:36:22;;;;;;;5.93;2.45;;;18.30;99.90;;;;;;5018529;28;20585;-65
2022/05/20 13:38:55;;;;;;;4.07;3.05;;;18.10;99.90;;;;;;5022956;28;20045;-65
2022/05/20 13:41:24;;;;;;;5.93;3.13;;;18.20;99.90;;;;;;5009923;28;20041;-65
2022/05/20 13:43:52;;;;;;;7.43;3.50;;;18.30;99.90;;;;;;5019907;28;20033;-63
2022/05/20 13:49:13;;;;;;;5.37;3.70;;;18.10;99.90;;;;;;5024036;28;20049;-63
2022/05/20 13:52:19;;;;;;;11.82;4.40;;;17.90;99.90;;;;;;5022784;28;20284;-63